Archival Weather

Aeroparque Jorge Newbery

Buenos Aires, Argentina (SABE)

Report from: Thursday, September 21, 2023 2:00 PM -03
Current time: Saturday, March 2, 2024 7:19 AM -03

Current weather – Weather history – Daily summaries
Weather forecast

Temperature19.0°C (66.2°F)
Dew point16.0°C (60.8°F)
Winds 2 kts (1 m/s, 2.3 mph) Vrb
Winds variableWinds variable
Visibility5.6 mi. (9 km)
Clouds Ceiling: Overcast 1,600 ft. (488 m)
Altimeter29.80 in.Hg (1009 mB)
Relative humidity83 %
Density altitude863 ft. (263 m)
Remarks No significant changes expected in the next two hours
Flight conditions Marginal Visual Meteorological Conditions
Raw dataSABE 211700Z VRB02KT 9000 OVC016 19/16 Q1009 NOSIG RMK PP000
An error has occurred. This application may no longer respond until reloaded. Reload 🗙